sensor_id;sensor_type;location;lat;lon;timestamp;pressure;altitude;pressure_sealevel;temperature
85302;BMP280;75707;46.948;7.410;2024-03-02T00:00:51;942.5669556;;;6.929931641
85302;BMP280;75707;46.948;7.410;2024-03-02T00:01:52;942.578186;;;6.929931641
85302;BMP280;75707;46.948;7.410;2024-03-02T00:02:53;942.5523682;;;6.909790039
85302;BMP280;75707;46.948;7.410;2024-03-02T00:03:54;942.5974121;;;6.899719238
85302;BMP280;75707;46.948;7.410;2024-03-02T00:04:55;942.6124878;;;6.909790039
85302;BMP280;75707;46.948;7.410;2024-03-02T00:05:55;942.6060181;;;6.909790039
85302;BMP280;75707;46.948;7.410;2024-03-02T00:06:56;942.5856323;;;6.929931641
85302;BMP280;75707;46.948;7.410;2024-03-02T00:07:57;942.6290894;;;6.909790039
85302;BMP280;75707;46.948;7.410;2024-03-02T00:08:58;942.6071777;;;6.899719238
85302;BMP280;75707;46.948;7.410;2024-03-02T00:09:58;942.5697021;;;6.909790039
85302;BMP280;75707;46.948;7.410;2024-03-02T00:11:01;942.5455322;;;6.869506836
85302;BMP280;75707;46.948;7.410;2024-03-02T00:12:00;942.5611572;;;6.859436035
85302;BMP280;75707;46.948;7.410;2024-03-02T00:13:00;942.5895386;;;6.859436035
85302;BMP280;75707;46.948;7.410;2024-03-02T00:14:01;942.6512451;;;6.829223633
85302;BMP280;75707;46.948;7.410;2024-03-02T00:15:02;942.625;;;6.809082031
85302;BMP280;75707;46.948;7.410;2024-03-02T00:16:03;942.6523438;;;6.78894043
85302;BMP280;75707;46.948;7.410;2024-03-02T00:17:03;942.68573;;;6.758728027
85302;BMP280;75707;46.948;7.410;2024-03-02T00:18:04;942.68396;;;6.708374023
85302;BMP280;75707;46.948;7.410;2024-03-02T00:19:05;942.6699829;;;6.637878418
85302;BMP280;75707;46.948;7.410;2024-03-02T00:20:06;942.6615601;;;6.637878418
85302;BMP280;75707;46.948;7.410;2024-03-02T00:21:06;942.6749878;;;6.627807617
85302;BMP280;75707;46.948;7.410;2024-03-02T00:22:07;942.6738892;;;6.627807617
85302;BMP280;75707;46.948;7.410;2024-03-02T00:23:08;942.664856;;;6.637878418
85302;BMP280;75707;46.948;7.410;2024-03-02T00:24:12;942.713623;;;6.607666016
85302;BMP280;75707;46.948;7.410;2024-03-02T00:25:09;942.7055664;;;6.637878418
85302;BMP280;75707;46.948;7.410;2024-03-02T00:26:09;942.7078247;;;6.637878418
85302;BMP280;75707;46.948;7.410;2024-03-02T00:27:10;942.6702881;;;6.637878418
85302;BMP280;75707;46.948;7.410;2024-03-02T00:28:13;942.6755981;;;6.637878418
85302;BMP280;75707;46.948;7.410;2024-03-02T00:29:11;942.6551514;;;6.637878418
85302;BMP280;75707;46.948;7.410;2024-03-02T00:30:13;942.7137451;;;6.637878418
85302;BMP280;75707;46.948;7.410;2024-03-02T00:31:13;942.6547852;;;6.637878418
85302;BMP280;75707;46.948;7.410;2024-03-02T00:32:13;942.6923218;;;6.637878418
85302;BMP280;75707;46.948;7.410;2024-03-02T00:33:14;942.6954956;;;6.627807617
85302;BMP280;75707;46.948;7.410;2024-03-02T00:34:15;942.7265625;;;6.607666016
85302;BMP280;75707;46.948;7.410;2024-03-02T00:35:15;942.758728;;;6.567382813
85302;BMP280;75707;46.948;7.410;2024-03-02T00:36:22;942.7415771;;;6.547241211
85302;BMP280;75707;46.948;7.410;2024-03-02T00:37:17;942.7629395;;;6.53717041
85302;BMP280;75707;46.948;7.410;2024-03-02T00:38:49;942.7625732;;;6.53717041
85302;BMP280;75707;46.948;7.410;2024-03-02T00:39:49;942.7390747;;;6.53717041
85302;BMP280;75707;46.948;7.410;2024-03-02T00:40:50;942.7598267;;;6.577453613
85302;BMP280;75707;46.948;7.410;2024-03-02T00:41:51;942.7491455;;;6.567382813
85302;BMP280;75707;46.948;7.410;2024-03-02T00:42:51;942.7137451;;;6.577453613
85302;BMP280;75707;46.948;7.410;2024-03-02T00:43:57;942.774353;;;6.597595215
85302;BMP280;75707;46.948;7.410;2024-03-02T00:44:53;942.7260742;;;6.577453613
85302;BMP280;75707;46.948;7.410;2024-03-02T00:45:54;942.7539673;;;6.577453613
85302;BMP280;75707;46.948;7.410;2024-03-02T00:46:55;942.7824707;;;6.53717041
85302;BMP280;75707;46.948;7.410;2024-03-02T00:47:55;942.762085;;;6.506958008
85302;BMP280;75707;46.948;7.410;2024-03-02T00:48:57;942.7732544;;;6.496887207
85302;BMP280;75707;46.948;7.410;2024-03-02T00:49:57;942.8404541;;;6.496887207
85302;BMP280;75707;46.948;7.410;2024-03-02T00:50:58;942.8290405;;;6.456604004
85302;BMP280;75707;46.948;7.410;2024-03-02T00:51:58;942.8574829;;;6.426391602
85302;BMP280;75707;46.948;7.410;2024-03-02T00:52:59;942.8693848;;;6.416320801
85302;BMP280;75707;46.948;7.410;2024-03-02T00:54:00;942.8618774;;;6.426391602
85302;BMP280;75707;46.948;7.410;2024-03-02T00:55:01;942.8461914;;;6.426391602
85302;BMP280;75707;46.948;7.410;2024-03-02T00:56:02;942.7663574;;;6.446533203
85302;BMP280;75707;46.948;7.410;2024-03-02T00:57:02;942.810791;;;6.426391602
85302;BMP280;75707;46.948;7.410;2024-03-02T00:58:03;942.8279419;;;6.376037598
85302;BMP280;75707;46.948;7.410;2024-03-02T00:59:04;942.8059082;;;6.345825195
85302;BMP280;75707;46.948;7.410;2024-03-02T01:00:05;942.8086548;;;6.345825195
85302;BMP280;75707;46.948;7.410;2024-03-02T01:01:05;942.7288208;;;6.345825195
85302;BMP280;75707;46.948;7.410;2024-03-02T01:02:06;942.7426758;;;6.345825195
85302;BMP280;75707;46.948;7.410;2024-03-02T01:03:06;942.7653198;;;6.325683594
85302;BMP280;75707;46.948;7.410;2024-03-02T01:04:07;942.7893677;;;6.345825195
85302;BMP280;75707;46.948;7.410;2024-03-02T01:05:08;942.7803345;;;6.325683594
85302;BMP280;75707;46.948;7.410;2024-03-02T01:06:09;942.8092041;;;6.325683594
85302;BMP280;75707;46.948;7.410;2024-03-02T01:07:09;942.7781372;;;6.295471191
85302;BMP280;75707;46.948;7.410;2024-03-02T01:08:10;942.753418;;;6.265258789
85302;BMP280;75707;46.948;7.410;2024-03-02T01:09:11;942.7148438;;;6.265258789
85302;BMP280;75707;46.948;7.410;2024-03-02T01:10:11;942.7243652;;;6.265258789
85302;BMP280;75707;46.948;7.410;2024-03-02T01:11:12;942.7067261;;;6.265258789
85302;BMP280;75707;46.948;7.410;2024-03-02T01:12:13;942.6976318;;;6.245117188
85302;BMP280;75707;46.948;7.410;2024-03-02T01:13:13;942.678894;;;6.235046387
85302;BMP280;75707;46.948;7.410;2024-03-02T01:14:14;942.7244263;;;6.245117188
85302;BMP280;75707;46.948;7.410;2024-03-02T01:15:15;942.6654663;;;6.214904785
85302;BMP280;75707;46.948;7.410;2024-03-02T01:16:15;942.6654053;;;6.174621582
85302;BMP280;75707;46.948;7.410;2024-03-02T01:17:16;942.6546631;;;6.174621582
85302;BMP280;75707;46.948;7.410;2024-03-02T01:18:17;942.6359253;;;6.204833984
85302;BMP280;75707;46.948;7.410;2024-03-02T01:19:48;942.6342773;;;6.245117188
85302;BMP280;75707;46.948;7.410;2024-03-02T01:20:48;942.647644;;;6.265258789
85302;BMP280;75707;46.948;7.410;2024-03-02T01:21:49;942.6192017;;;6.235046387
85302;BMP280;75707;46.948;7.410;2024-03-02T01:22:50;942.6535645;;;6.194763184
85302;BMP280;75707;46.948;7.410;2024-03-02T01:23:50;942.6663818;;;6.214904785
85302;BMP280;75707;46.948;7.410;2024-03-02T01:24:51;942.6450195;;;6.204833984
85302;BMP280;75707;46.948;7.410;2024-03-02T01:25:52;942.6472168;;;6.164550781
85302;BMP280;75707;46.948;7.410;2024-03-02T01:26:52;942.6397095;;;6.14440918
85302;BMP280;75707;46.948;7.410;2024-03-02T01:27:53;942.6685791;;;6.104125977
85302;BMP280;75707;46.948;7.410;2024-03-02T01:28:54;942.6546631;;;6.114196777
85302;BMP280;75707;46.948;7.410;2024-03-02T01:29:54;942.6535645;;;6.104125977
85302;BMP280;75707;46.948;7.410;2024-03-02T01:30:55;942.6503296;;;6.083984375
85302;BMP280;75707;46.948;7.410;2024-03-02T01:31:55;942.6465454;;;6.114196777
85302;BMP280;75707;46.948;7.410;2024-03-02T01:32:56;942.6529541;;;6.164550781
85302;BMP280;75707;46.948;7.410;2024-03-02T01:33:57;942.649231;;;6.174621582
85302;BMP280;75707;46.948;7.410;2024-03-02T01:34:57;942.6481323;;;6.104125977
85302;BMP280;75707;46.948;7.410;2024-03-02T01:35:58;942.625061;;;6.033630371
85302;BMP280;75707;46.948;7.410;2024-03-02T01:36:59;942.6690674;;;5.983276367
85302;BMP280;75707;46.948;7.410;2024-03-02T01:38:00;942.6893921;;;5.922851563
85302;BMP280;75707;46.948;7.410;2024-03-02T01:39:00;942.6453857;;;5.872497559
85302;BMP280;75707;46.948;7.410;2024-03-02T01:40:01;942.6353149;;;5.812072754
85302;BMP280;75707;46.948;7.410;2024-03-02T01:41:02;942.5756226;;;5.852355957
85302;BMP280;75707;46.948;7.410;2024-03-02T01:42:02;942.5848389;;;5.882568359
85302;BMP280;75707;46.948;7.410;2024-03-02T01:43:03;942.5692749;;;5.882568359
85302;BMP280;75707;46.948;7.410;2024-03-02T01:44:03;942.6099854;;;5.872497559
85302;BMP280;75707;46.948;7.410;2024-03-02T01:45:04;942.6196899;;;5.882568359
85302;BMP280;75707;46.948;7.410;2024-03-02T01:46:05;942.6009521;;;5.932922363
85302;BMP280;75707;46.948;7.410;2024-03-02T01:47:05;942.5584106;;;5.963134766
85302;BMP280;75707;46.948;7.410;2024-03-02T01:48:06;942.5825195;;;5.983276367
85302;BMP280;75707;46.948;7.410;2024-03-02T01:49:06;942.5359497;;;6.033630371
85302;BMP280;75707;46.948;7.410;2024-03-02T01:50:07;942.5461426;;;6.053771973
85302;BMP280;75707;46.948;7.410;2024-03-02T01:51:08;942.5374756;;;6.063842773
85302;BMP280;75707;46.948;7.410;2024-03-02T01:52:08;942.5072021;;;6.083984375
85302;BMP280;75707;46.948;7.410;2024-03-02T01:53:09;942.5446777;;;6.033630371
85302;BMP280;75707;46.948;7.410;2024-03-02T01:54:10;942.5115356;;;6.01348877
85302;BMP280;75707;46.948;7.410;2024-03-02T01:55:10;942.5420532;;;5.983276367
85302;BMP280;75707;46.948;7.410;2024-03-02T01:56:11;942.532959;;;5.963134766
85302;BMP280;75707;46.948;7.410;2024-03-02T01:57:12;942.5239258;;;5.983276367
85302;BMP280;75707;46.948;7.410;2024-03-02T01:58:12;942.5014038;;;5.993347168
85302;BMP280;75707;46.948;7.410;2024-03-02T01:59:13;942.5592041;;;5.983276367
85302;BMP280;75707;46.948;7.410;2024-03-02T02:00:14;942.5644531;;;5.983276367
85302;BMP280;75707;46.948;7.410;2024-03-02T02:01:15;942.539856;;;5.993347168
85302;BMP280;75707;46.948;7.410;2024-03-02T02:02:15;942.5415039;;;5.953063965
85302;BMP280;75707;46.948;7.410;2024-03-02T02:03:16;942.5596924;;;5.902709961
85302;BMP280;75707;46.948;7.410;2024-03-02T02:04:17;942.5632935;;;5.852355957
85302;BMP280;75707;46.948;7.410;2024-03-02T02:05:48;942.5504761;;;5.832214355
85302;BMP280;75707;46.948;7.410;2024-03-02T02:06:49;942.5639038;;;5.902709961
85302;BMP280;75707;46.948;7.410;2024-03-02T02:07:49;942.5435181;;;5.963134766
85302;BMP280;75707;46.948;7.410;2024-03-02T02:08:50;942.529541;;;6.02355957
85302;BMP280;75707;46.948;7.410;2024-03-02T02:09:51;942.5390625;;;5.953063965
85302;BMP280;75707;46.948;7.410;2024-03-02T02:10:51;942.5392456;;;5.922851563
85302;BMP280;75707;46.948;7.410;2024-03-02T02:11:52;942.5048218;;;5.842285156
85302;BMP280;75707;46.948;7.410;2024-03-02T02:12:53;942.5134277;;;5.812072754
85302;BMP280;75707;46.948;7.410;2024-03-02T02:13:54;942.5273438;;;5.781860352
85302;BMP280;75707;46.948;7.410;2024-03-02T02:14:55;942.5217896;;;5.741577148
85302;BMP280;75707;46.948;7.410;2024-03-02T02:15:58;942.5448608;;;5.751647949
85302;BMP280;75707;46.948;7.410;2024-03-02T02:16:56;942.5078735;;;5.751647949
85302;BMP280;75707;46.948;7.410;2024-03-02T02:17:57;942.5203247;;;5.781860352
85302;BMP280;75707;46.948;7.410;2024-03-02T02:18:58;942.463501;;;5.731506348
85302;BMP280;75707;46.948;7.410;2024-03-02T02:19:58;942.5214233;;;5.751647949
85302;BMP280;75707;46.948;7.410;2024-03-02T02:20:59;942.527832;;;5.781860352
85302;BMP280;75707;46.948;7.410;2024-03-02T02:21:59;942.4865723;;;5.771789551
85302;BMP280;75707;46.948;7.410;2024-03-02T02:23:00;942.5437622;;;5.781860352
85302;BMP280;75707;46.948;7.410;2024-03-02T02:24:01;942.5427856;;;5.832214355
85302;BMP280;75707;46.948;7.410;2024-03-02T02:25:01;942.475769;;;5.852355957
85302;BMP280;75707;46.948;7.410;2024-03-02T02:26:02;942.4949951;;;5.812072754
85302;BMP280;75707;46.948;7.410;2024-03-02T02:27:02;942.4120483;;;5.741577148
85302;BMP280;75707;46.948;7.410;2024-03-02T02:28:03;942.4559326;;;5.701293945
85302;BMP280;75707;46.948;7.410;2024-03-02T02:29:04;942.4220581;;;5.63079834
85302;BMP280;75707;46.948;7.410;2024-03-02T02:30:05;942.418335;;;5.580444336
85302;BMP280;75707;46.948;7.410;2024-03-02T02:31:05;942.4268799;;;5.580444336
85302;BMP280;75707;46.948;7.410;2024-03-02T02:32:06;942.4160767;;;5.600585938
85302;BMP280;75707;46.948;7.410;2024-03-02T02:33:07;942.4681396;;;5.650939941
85302;BMP280;75707;46.948;7.410;2024-03-02T02:34:08;942.4038086;;;5.671081543
85302;BMP280;75707;46.948;7.410;2024-03-02T02:35:09;942.4310913;;;5.691223145
85302;BMP280;75707;46.948;7.410;2024-03-02T02:36:09;942.387085;;;5.671081543
85302;BMP280;75707;46.948;7.410;2024-03-02T02:37:10;942.3790894;;;5.701293945
85302;BMP280;75707;46.948;7.410;2024-03-02T02:38:10;942.3876343;;;5.802001953
85302;BMP280;75707;46.948;7.410;2024-03-02T02:39:12;942.3657837;;;5.771789551
85302;BMP280;75707;46.948;7.410;2024-03-02T02:40:12;942.3458862;;;5.771789551
85302;BMP280;75707;46.948;7.410;2024-03-02T02:41:12;942.3602905;;;5.741577148
85302;BMP280;75707;46.948;7.410;2024-03-02T02:42:13;942.3278198;;;5.731506348
85302;BMP280;75707;46.948;7.410;2024-03-02T02:43:13;942.3132935;;;5.691223145
85302;BMP280;75707;46.948;7.410;2024-03-02T02:44:14;942.3004761;;;5.661010742
85302;BMP280;75707;46.948;7.410;2024-03-02T02:45:15;942.2977905;;;5.741577148
85302;BMP280;75707;46.948;7.410;2024-03-02T02:46:15;942.2977295;;;5.781860352
85302;BMP280;75707;46.948;7.410;2024-03-02T02:47:16;942.2301636;;;5.731506348
85302;BMP280;75707;46.948;7.410;2024-03-02T02:48:47;942.2184448;;;5.671081543
85302;BMP280;75707;46.948;7.410;2024-03-02T02:49:48;942.2241211;;;5.671081543
85302;BMP280;75707;46.948;7.410;2024-03-02T02:50:48;942.2338867;;;5.671081543
85302;BMP280;75707;46.948;7.410;2024-03-02T02:51:49;942.2136841;;;5.661010742
85302;BMP280;75707;46.948;7.410;2024-03-02T02:52:50;942.2081299;;;5.751647949
85302;BMP280;75707;46.948;7.410;2024-03-02T02:53:50;942.2265015;;;5.771789551
85302;BMP280;75707;46.948;7.410;2024-03-02T02:54:51;942.1984253;;;5.832214355
85302;BMP280;75707;46.948;7.410;2024-03-02T02:55:52;942.2340088;;;5.832214355
85302;BMP280;75707;46.948;7.410;2024-03-02T02:56:52;942.2023315;;;5.701293945
85302;BMP280;75707;46.948;7.410;2024-03-02T02:57:53;942.2445068;;;5.671081543
85302;BMP280;75707;46.948;7.410;2024-03-02T02:58:53;942.1785278;;;5.560302734
85302;BMP280;75707;46.948;7.410;2024-03-02T02:59:54;942.1657715;;;5.489807129
85302;BMP280;75707;46.948;7.410;2024-03-02T03:00:55;942.2102051;;;5.469665527
85302;BMP280;75707;46.948;7.410;2024-03-02T03:01:55;942.1940918;;;5.419311523
85302;BMP280;75707;46.948;7.410;2024-03-02T03:02:56;942.253418;;;5.439453125
85302;BMP280;75707;46.948;7.410;2024-03-02T03:03:57;942.3167114;;;5.439453125
85302;BMP280;75707;46.948;7.410;2024-03-02T03:04:57;942.3005371;;;5.409240723
85302;BMP280;75707;46.948;7.410;2024-03-02T03:05:58;942.2664185;;;5.399169922
85302;BMP280;75707;46.948;7.410;2024-03-02T03:06:59;942.2545166;;;5.399169922
85302;BMP280;75707;46.948;7.410;2024-03-02T03:07:59;942.2373657;;;5.399169922
85302;BMP280;75707;46.948;7.410;2024-03-02T03:09:00;942.2132568;;;5.419311523
85302;BMP280;75707;46.948;7.410;2024-03-02T03:10:00;942.211731;;;5.439453125
85302;BMP280;75707;46.948;7.410;2024-03-02T03:11:01;942.2324829;;;5.399169922
85302;BMP280;75707;46.948;7.410;2024-03-02T03:12:02;942.1997681;;;5.399169922
85302;BMP280;75707;46.948;7.410;2024-03-02T03:13:02;942.1998291;;;5.419311523
85302;BMP280;75707;46.948;7.410;2024-03-02T03:14:03;942.2318726;;;5.409240723
85302;BMP280;75707;46.948;7.410;2024-03-02T03:15:04;942.1511841;;;5.399169922
85302;BMP280;75707;46.948;7.410;2024-03-02T03:16:04;942.1168823;;;5.37902832
85302;BMP280;75707;46.948;7.410;2024-03-02T03:17:05;942.1473389;;;5.37902832
85302;BMP280;75707;46.948;7.410;2024-03-02T03:18:06;942.1157837;;;5.36895752
85302;BMP280;75707;46.948;7.410;2024-03-02T03:19:06;942.1243896;;;5.37902832
85302;BMP280;75707;46.948;7.410;2024-03-02T03:20:07;942.1173706;;;5.37902832
85302;BMP280;75707;46.948;7.410;2024-03-02T03:21:08;942.107605;;;5.409240723
85302;BMP280;75707;46.948;7.410;2024-03-02T03:22:08;942.1001587;;;5.439453125
85302;BMP280;75707;46.948;7.410;2024-03-02T03:23:09;942.1463013;;;5.479736328
85302;BMP280;75707;46.948;7.410;2024-03-02T03:24:10;942.1671753;;;5.50994873
85302;BMP280;75707;46.948;7.410;2024-03-02T03:25:11;942.1456299;;;5.479736328
85302;BMP280;75707;46.948;7.410;2024-03-02T03:26:12;942.0632935;;;5.439453125
85302;BMP280;75707;46.948;7.410;2024-03-02T03:27:13;942.1300049;;;5.419311523
85302;BMP280;75707;46.948;7.410;2024-03-02T03:28:13;942.1081543;;;5.37902832
85302;BMP280;75707;46.948;7.410;2024-03-02T03:29:14;942.0839844;;;5.419311523
85302;BMP280;75707;46.948;7.410;2024-03-02T03:30:15;942.0476074;;;5.409240723
85302;BMP280;75707;46.948;7.410;2024-03-02T03:31:16;942.1272583;;;5.419311523
85302;BMP280;75707;46.948;7.410;2024-03-02T03:32:47;942.1207886;;;5.409240723
85302;BMP280;75707;46.948;7.410;2024-03-02T03:33:48;942.1020508;;;5.36895752
85302;BMP280;75707;46.948;7.410;2024-03-02T03:34:48;942.083252;;;5.328674316
85302;BMP280;75707;46.948;7.410;2024-03-02T03:35:49;942.090332;;;5.36895752
85302;BMP280;75707;46.948;7.410;2024-03-02T03:36:50;942.1287231;;;5.36895752
85302;BMP280;75707;46.948;7.410;2024-03-02T03:37:50;942.1207275;;;5.268249512
85302;BMP280;75707;46.948;7.410;2024-03-02T03:38:51;942.1185913;;;5.268249512
85302;BMP280;75707;46.948;7.410;2024-03-02T03:39:52;942.1184082;;;5.217895508
85302;BMP280;75707;46.948;7.410;2024-03-02T03:40:52;942.0725098;;;5.137329102
85302;BMP280;75707;46.948;7.410;2024-03-02T03:41:53;942.0656128;;;5.147399902
85302;BMP280;75707;46.948;7.410;2024-03-02T03:42:54;942.0922852;;;5.167541504
85302;BMP280;75707;46.948;7.410;2024-03-02T03:43:55;942.1140747;;;5.187683105
85302;BMP280;75707;46.948;7.410;2024-03-02T03:44:55;942.1468506;;;5.187683105
85302;BMP280;75707;46.948;7.410;2024-03-02T03:45:56;942.1361084;;;5.197753906
85302;BMP280;75707;46.948;7.410;2024-03-02T03:46:57;942.2067261;;;5.268249512
85302;BMP280;75707;46.948;7.410;2024-03-02T03:47:58;942.1535645;;;5.288391113
85302;BMP280;75707;46.948;7.410;2024-03-02T03:48:59;942.1290894;;;5.227966309
85302;BMP280;75707;46.948;7.410;2024-03-02T03:49:59;942.2043457;;;5.187683105
85302;BMP280;75707;46.948;7.410;2024-03-02T03:51:00;942.2120361;;;5.187683105
85302;BMP280;75707;46.948;7.410;2024-03-02T03:52:00;942.2246704;;;5.167541504
85302;BMP280;75707;46.948;7.410;2024-03-02T03:53:01;942.2235718;;;5.167541504
85302;BMP280;75707;46.948;7.410;2024-03-02T03:54:02;942.1920166;;;5.1171875
85302;BMP280;75707;46.948;7.410;2024-03-02T03:55:03;942.15625;;;5.076904297
85302;BMP280;75707;46.948;7.410;2024-03-02T03:56:03;942.1400146;;;5.046691895
85302;BMP280;75707;46.948;7.410;2024-03-02T03:57:04;942.1436157;;;5.046691895
85302;BMP280;75707;46.948;7.410;2024-03-02T03:58:05;942.1768799;;;5.036621094
85302;BMP280;75707;46.948;7.410;2024-03-02T03:59:05;942.1419678;;;5.056762695
85302;BMP280;75707;46.948;7.410;2024-03-02T04:00:06;942.1387329;;;5.137329102
85302;BMP280;75707;46.948;7.410;2024-03-02T04:01:06;942.0958862;;;5.1171875
85302;BMP280;75707;46.948;7.410;2024-03-02T04:02:07;942.1459961;;;5.016479492
85302;BMP280;75707;46.948;7.410;2024-03-02T04:03:07;942.1412354;;;4.966125488
85302;BMP280;75707;46.948;7.410;2024-03-02T04:04:08;942.1277466;;;4.935913086
85302;BMP280;75707;46.948;7.410;2024-03-02T04:05:09;942.166748;;;4.935913086
85302;BMP280;75707;46.948;7.410;2024-03-02T04:06:09;942.1437378;;;4.925842285
85302;BMP280;75707;46.948;7.410;2024-03-02T04:07:10;942.1629028;;;4.935913086
85302;BMP280;75707;46.948;7.410;2024-03-02T04:08:11;942.1387329;;;4.966125488
85302;BMP280;75707;46.948;7.410;2024-03-02T04:09:11;942.1489868;;;4.966125488
85302;BMP280;75707;46.948;7.410;2024-03-02T04:10:12;942.1538086;;;5.006408691
85302;BMP280;75707;46.948;7.410;2024-03-02T04:11:13;942.1414795;;;5.016479492
85302;BMP280;75707;46.948;7.410;2024-03-02T04:12:14;942.1312256;;;4.98626709
85302;BMP280;75707;46.948;7.410;2024-03-02T04:13:14;942.1056519;;;4.935913086
85302;BMP280;75707;46.948;7.410;2024-03-02T04:14:15;942.0870361;;;5.016479492
85302;BMP280;75707;46.948;7.410;2024-03-02T04:15:46;942.097168;;;5.036621094
85302;BMP280;75707;46.948;7.410;2024-03-02T04:16:47;942.1029663;;;5.056762695
85302;BMP280;75707;46.948;7.410;2024-03-02T04:17:48;942.0854492;;;5.046691895
85302;BMP280;75707;46.948;7.410;2024-03-02T04:18:49;942.1747437;;;5.076904297
85302;BMP280;75707;46.948;7.410;2024-03-02T04:19:49;942.225647;;;5.107116699
85302;BMP280;75707;46.948;7.410;2024-03-02T04:20:50;942.1551514;;;5.1171875
85302;BMP280;75707;46.948;7.410;2024-03-02T04:21:51;942.1512451;;;5.187683105
85302;BMP280;75707;46.948;7.410;2024-03-02T04:22:52;942.1379395;;;5.227966309
85302;BMP280;75707;46.948;7.410;2024-03-02T04:23:52;942.1108398;;;5.258178711
85302;BMP280;75707;46.948;7.410;2024-03-02T04:24:53;942.1922607;;;5.258178711
85302;BMP280;75707;46.948;7.410;2024-03-02T04:25:53;942.1660767;;;5.258178711
85302;BMP280;75707;46.948;7.410;2024-03-02T04:26:54;942.2008057;;;5.288391113
85302;BMP280;75707;46.948;7.410;2024-03-02T04:27:55;942.2098389;;;5.298461914
85302;BMP280;75707;46.948;7.410;2024-03-02T04:28:56;942.2012329;;;5.288391113
85302;BMP280;75707;46.948;7.410;2024-03-02T04:29:57;942.1757813;;;5.298461914
85302;BMP280;75707;46.948;7.410;2024-03-02T04:30:57;942.1495361;;;5.348815918
85302;BMP280;75707;46.948;7.410;2024-03-02T04:31:58;942.1657715;;;5.37902832
85302;BMP280;75707;46.948;7.410;2024-03-02T04:32:58;942.2230225;;;5.409240723
85302;BMP280;75707;46.948;7.410;2024-03-02T04:33:59;942.2352905;;;5.36895752
85302;BMP280;75707;46.948;7.410;2024-03-02T04:35:00;942.2492065;;;5.37902832
85302;BMP280;75707;46.948;7.410;2024-03-02T04:36:01;942.2583618;;;5.479736328
85302;BMP280;75707;46.948;7.410;2024-03-02T04:37:01;942.2306519;;;5.489807129
85302;BMP280;75707;46.948;7.410;2024-03-02T04:38:02;942.2310791;;;5.419311523
85302;BMP280;75707;46.948;7.410;2024-03-02T04:39:03;942.1727905;;;5.439453125
85302;BMP280;75707;46.948;7.410;2024-03-02T04:40:04;942.2629395;;;5.419311523
85302;BMP280;75707;46.948;7.410;2024-03-02T04:41:04;942.2335815;;;5.469665527
85302;BMP280;75707;46.948;7.410;2024-03-02T04:42:05;942.2147827;;;5.479736328
85302;BMP280;75707;46.948;7.410;2024-03-02T04:43:05;942.1638794;;;5.479736328
85302;BMP280;75707;46.948;7.410;2024-03-02T04:44:06;942.1698608;;;5.550231934
85302;BMP280;75707;46.948;7.410;2024-03-02T04:45:07;942.1896973;;;5.520019531
85302;BMP280;75707;46.948;7.410;2024-03-02T04:46:07;942.2346802;;;5.489807129
85302;BMP280;75707;46.948;7.410;2024-03-02T04:47:08;942.2593994;;;5.469665527
85302;BMP280;75707;46.948;7.410;2024-03-02T04:48:08;942.2160645;;;5.36895752
85302;BMP280;75707;46.948;7.410;2024-03-02T04:49:09;942.2090454;;;5.328674316
85302;BMP280;75707;46.948;7.410;2024-03-02T04:50:10;942.1785278;;;5.318603516
85302;BMP280;75707;46.948;7.410;2024-03-02T04:51:10;942.177002;;;5.328674316
85302;BMP280;75707;46.948;7.410;2024-03-02T04:52:11;942.1507568;;;5.36895752
85302;BMP280;75707;46.948;7.410;2024-03-02T04:53:12;942.2097168;;;5.409240723
85302;BMP280;75707;46.948;7.410;2024-03-02T04:54:13;942.2546997;;;5.469665527
85302;BMP280;75707;46.948;7.410;2024-03-02T04:55:13;942.2567139;;;5.439453125
85302;BMP280;75707;46.948;7.410;2024-03-02T04:56:14;942.2199097;;;5.399169922
85302;BMP280;75707;46.948;7.410;2024-03-02T04:57:45;942.1967773;;;5.37902832
85302;BMP280;75707;46.948;7.410;2024-03-02T04:58:46;942.1315918;;;5.348815918
85302;BMP280;75707;46.948;7.410;2024-03-02T04:59:47;942.1155396;;;5.288391113
85302;BMP280;75707;46.948;7.410;2024-03-02T05:00:47;942.1550293;;;5.298461914
85302;BMP280;75707;46.948;7.410;2024-03-02T05:01:48;942.1609497;;;5.227966309
85302;BMP280;75707;46.948;7.410;2024-03-02T05:02:48;942.1936035;;;5.137329102
85302;BMP280;75707;46.948;7.410;2024-03-02T05:03:49;942.2068481;;;5.086975098
85302;BMP280;75707;46.948;7.410;2024-03-02T05:04:50;942.1801758;;;5.076904297
85302;BMP280;75707;46.948;7.410;2024-03-02T05:05:50;942.1864624;;;5.056762695
85302;BMP280;75707;46.948;7.410;2024-03-02T05:06:51;942.1660767;;;5.056762695
85302;BMP280;75707;46.948;7.410;2024-03-02T05:07:52;942.1314087;;;5.046691895
85302;BMP280;75707;46.948;7.410;2024-03-02T05:08:52;942.1987305;;;5.006408691
85302;BMP280;75707;46.948;7.410;2024-03-02T05:09:53;942.1928101;;;4.98626709
85302;BMP280;75707;46.948;7.410;2024-03-02T05:10:54;942.2109985;;;4.966125488
85302;BMP280;75707;46.948;7.410;2024-03-02T05:11:54;942.1986694;;;5.006408691
85302;BMP280;75707;46.948;7.410;2024-03-02T05:12:55;942.2249146;;;5.046691895
85302;BMP280;75707;46.948;7.410;2024-03-02T05:13:55;942.2327881;;;5.046691895